Aérodrome :
LOGIN :

S'inscrire | Disclaimer

   EN    FR    IT 

 










Légende :    VFR   VFR Marginal   IFR   IFR Intensif   IFR Très Intensif
Visi : 
Plafond : 
>= 8 km
>= 3000ft
5 à 8 km
1000 à 3000 ft
1500m à 5 km
500 à 1000 ft
800 à 1500m
200 à 500 ft
< 800m
< 200 ft
Symboles :   Orages  Brouillard  Fortes neiges  Fortes précipitations  Vent > 20 kt
SIGMETs :   Divers  Orages  Givrage  Turbulence  Onde Orograph.  Cendres Volcan.







- Altitude de l'aérodrome : 26 ft
- Code IATA : GLA
- Voir les cartes d'approche


EGPF - Glasgow

DERNIER METAR :
  • 161950Z AUTO 23009KT 9999 SCT030 BKN034 02/00 Q0999

METARs EXPIRÉS :
  • 161920Z AUTO 22007KT 9999 NCD 02/00 Q0998
  • 161850Z AUTO 24008KT 9999 NCD 02/00 Q0998
  • 161820Z AUTO 23005KT 9999 NCD 02/00 Q0998
  • 161750Z AUTO 23011KT 9999 NCD 02/01 Q0997
  • 161720Z AUTO 20005KT 160V230 9999 FEW022 BKN030 03/01 Q0997

TAF TAF EGPF
Valide du 16 à 18h jusqu'au 17 à 18h UTC


161701Z 1618/1718 25007KT 9999 SCT025
PROB40
TEMPO 1618/1622 6000 SHRA BKN012
BECMG 1619/1622 32012KT
TEMPO 1621/1708 34015G25KT
BECMG 1715/1718 23005KT
ATIS : +44 141 887 7449
Pas de NOTAMs connus pour ce terrain.



MET'MAP, la Météo Aéronautique d'un coup d'oeil ! - Copyright ORBIFLY Décembre 2007 - Disclaimer

ORBIFLY MET'MAP TEAM :

Programmation & Développement : Alexandra Zaïnal
Conception & Développement : Baudouin d'Aumeries
Co-Programmation & Développement : Marc-Olivier Méhu
Soutien technique & logistique : Manuel Goepfert

Contact : metmap@orbifly.com




SOURCES & CREDITS :

   NOAA